Time;durP1;ratioP1;P1;durP2;ratioP2;P2;SDS_P1;SDS_P2;PMS_P1;PMS_P2;Temp;Humidity;BMP_temperature;BMP_pressure;BME280_temperature;BME280_humidity;BME280_pressure;Samples;Min_cycle;Max_cycle;Signal;HPM_P1;HPM_P2
2021/03/13 00:00:58;;;;;;;40.80;19.43;;;;;;;5.42;65.55;94499.84;5009957;28;20220;-71
2021/03/13 00:03:24;;;;;;;43.97;21.23;;;;;;;5.51;65.99;94502.44;5011226;28;20173;-69
2021/03/13 00:05:49;;;;;;;42.43;21.17;;;;;;;5.27;65.90;94518.91;5011426;28;20256;-71
2021/03/13 00:08:15;;;;;;;41.70;20.77;;;;;;;4.70;68.13;94527.25;5011505;28;20560;-71
2021/03/13 00:10:41;;;;;;;61.63;28.67;;;;;;;5.19;67.14;94517.88;5011329;28;20185;-69
2021/03/13 00:13:07;;;;;;;55.80;27.35;;;;;;;5.06;67.38;94523.41;5011400;28;20181;-69
2021/03/13 00:15:32;;;;;;;68.30;29.63;;;;;;;4.73;69.05;94521.34;5011426;28;20667;-69
2021/03/13 00:17:58;;;;;;;64.03;29.80;;;;;;;5.24;67.36;94524.88;5009756;28;20561;-69
2021/03/13 00:20:25;;;;;;;61.50;28.67;;;;;;;5.32;66.27;94514.22;5011055;28;20177;-69
2021/03/13 00:22:51;;;;;;;56.58;29.38;;;;;;;5.50;65.93;94499.03;5010819;28;20624;-69
2021/03/13 00:25:17;;;;;;;52.95;27.25;;;;;;;5.38;66.10;94500.81;5010344;28;20228;-71
2021/03/13 00:27:46;;;;;;;51.88;23.38;;;;;;;4.83;68.22;94497.19;5010645;28;20181;-69
2021/03/13 00:30:19;;;;;;;56.90;26.30;;;;;;;4.88;68.09;94498.88;5011128;28;20181;-69
2021/03/13 00:32:45;;;;;;;55.57;28.13;;;;;;;5.31;66.11;94493.38;5011187;28;20320;-69
2021/03/13 00:35:11;;;;;;;53.38;25.77;;;;;;;5.23;66.59;94487.03;5012111;28;20404;-69
2021/03/13 00:37:37;;;;;;;44.90;21.70;;;;;;;4.94;67.20;94492.34;5015010;28;20247;-69
2021/03/13 00:40:04;;;;;;;41.07;20.17;;;;;;;4.90;68.03;94491.41;5014631;28;20188;-72
2021/03/13 00:42:29;;;;;;;41.90;23.08;;;;;;;4.90;68.02;94489.53;5014735;28;20584;-70
2021/03/13 00:44:55;;;;;;;47.03;21.87;;;;;;;5.01;68.23;94493.38;5014312;28;20291;-70
2021/03/13 00:47:20;;;;;;;41.37;21.40;;;;;;;5.48;66.60;94484.53;5014572;28;20165;-69
2021/03/13 00:49:46;;;;;;;46.80;23.30;;;;;;;4.95;67.98;94484.06;5014236;28;20644;-69
2021/03/13 00:52:11;;;;;;;44.60;22.07;;;;;;;5.09;67.90;94488.34;5014138;28;20257;-69
2021/03/13 00:54:37;;;;;;;46.93;25.43;;;;;;;5.08;67.77;94486.81;5014480;28;20171;-72
2021/03/13 00:57:02;;;;;;;50.37;26.10;;;;;;;5.02;68.17;94478.28;5014238;28;20193;-72
2021/03/13 00:59:28;;;;;;;53.63;24.47;;;;;;;5.38;67.35;94483.03;5014449;28;20169;-72
2021/03/13 01:01:54;;;;;;;51.50;25.73;;;;;;;5.28;66.51;94484.22;5014169;28;20184;-72
2021/03/13 01:04:19;;;;;;;55.20;25.70;;;;;;;5.37;66.49;94478.84;5013958;28;20588;-69
2021/03/13 01:06:45;;;;;;;45.27;23.57;;;;;;;4.97;67.01;94458.06;5014097;28;20177;-70
2021/03/13 01:09:10;;;;;;;32.70;16.97;;;;;;;5.25;65.93;94470.81;5013132;28;20640;-68
2021/03/13 01:11:36;;;;;;;35.07;18.73;;;;;;;5.40;65.07;94467.63;5013922;28;20165;-70
2021/03/13 01:14:01;;;;;;;33.90;16.37;;;;;;;5.45;64.90;94459.50;5014242;28;20185;-69
2021/03/13 01:16:27;;;;;;;36.13;18.27;;;;;;;5.51;64.91;94452.13;5014079;28;20201;-70
2021/03/13 01:18:52;;;;;;;34.83;17.07;;;;;;;5.35;66.40;94453.81;5013746;28;20169;-70
2021/03/13 01:21:18;;;;;;;38.67;18.70;;;;;;;5.12;67.46;94455.97;5013599;28;20177;-72
2021/03/13 01:23:43;;;;;;;42.67;19.70;;;;;;;5.39;66.03;94436.16;5013655;28;20658;-69
2021/03/13 01:26:09;;;;;;;38.20;19.33;;;;;;;5.65;65.02;94449.22;5013961;28;20323;-71
2021/03/13 01:28:34;;;;;;;39.80;20.47;;;;;;;5.53;66.23;94445.41;5013612;28;20188;-72
2021/03/13 01:31:00;;;;;;;40.77;20.80;;;;;;;5.33;67.60;94459.41;5013724;28;20181;-69
2021/03/13 01:33:25;;;;;;;43.30;20.37;;;;;;;5.45;67.21;94467.44;5013433;28;20723;-70
2021/03/13 01:35:51;;;;;;;44.07;21.73;;;;;;;5.56;66.79;94458.00;5013534;28;20203;-70
2021/03/13 01:38:16;;;;;;;44.00;23.23;;;;;;;4.99;68.97;94460.38;5013940;28;20185;-70
2021/03/13 01:40:42;;;;;;;50.63;23.00;;;;;;;4.90;69.02;94455.16;5013432;28;20173;-69
2021/03/13 01:43:07;;;;;;;44.20;21.93;;;;;;;5.11;68.49;94460.50;5013972;28;20169;-69
2021/03/13 01:45:33;;;;;;;46.83;22.63;;;;;;;5.37;68.03;94462.97;5013294;28;20207;-70
2021/03/13 01:47:58;;;;;;;41.47;20.60;;;;;;;5.41;67.64;94463.88;5012538;28;20251;-69
2021/03/13 01:50:24;;;;;;;51.00;22.93;;;;;;;5.65;66.97;94457.94;5013232;28;20606;-69
2021/03/13 01:52:49;;;;;;;48.53;23.60;;;;;;;5.65;68.06;94454.50;5013142;28;20362;-69
2021/03/13 01:55:15;;;;;;;47.50;23.23;;;;;;;5.45;68.29;94451.56;5013174;28;20302;-69
2021/03/13 01:57:41;;;;;;;44.40;21.67;;;;;;;5.18;68.71;94447.53;5013231;28;20270;-69
2021/03/13 02:00:09;;;;;;;38.97;19.73;;;;;;;5.30;69.18;94438.88;5013268;28;20184;-69
2021/03/13 02:02:34;;;;;;;41.20;20.13;;;;;;;4.98;69.61;94449.03;5013271;28;20173;-69
2021/03/13 02:05:00;;;;;;;38.37;21.10;;;;;;;4.74;69.49;94432.97;5013249;28;20216;-71
2021/03/13 02:07:40;;;;;;;39.30;20.90;;;;;;;5.01;68.28;94427.22;5012794;28;20173;-70
2021/03/13 02:10:17;;;;;;;45.35;20.92;;;;;;;5.25;67.42;94431.91;5011868;28;20177;-69
2021/03/13 02:13:04;;;;;;;40.35;19.73;;;;;;;5.34;66.93;94431.84;5011956;28;20169;-69
2021/03/13 02:15:38;;;;;;;37.08;19.80;;;;;;;5.65;66.24;94426.16;5012716;28;20276;-69
2021/03/13 02:18:24;;;;;;;38.45;20.02;;;;;;;5.14;66.92;94404.25;5011709;28;20173;-69
2021/03/13 02:21:09;;;;;;;38.17;19.23;;;;;;;5.54;67.00;94425.75;5011548;28;20227;-69
2021/03/13 02:24:22;;;;;;;36.87;17.67;;;;;;;5.60;67.44;94431.63;5012545;28;20211;-69
2021/03/13 02:26:51;;;;;;;32.50;18.30;;;;;;;5.69;66.55;94431.59;4991081;28;21065;-69
2021/03/13 02:29:45;;;;;;;38.43;19.67;;;;;;;5.71;67.12;94426.72;4990971;28;20796;-70
2021/03/13 02:32:17;;;;;;;36.83;19.55;;;;;;;6.04;64.73;94429.41;5012381;28;20416;-69
2021/03/13 02:34:43;;;;;;;35.37;18.93;;;;;;;6.21;64.84;94423.16;5011254;28;20196;-69
2021/03/13 02:37:20;;;;;;;36.83;19.87;;;;;;;6.20;64.36;94426.94;5012353;28;20428;-69
2021/03/13 02:39:46;;;;;;;35.73;17.53;;;;;;;6.21;63.92;94413.34;5011305;28;20481;-70
2021/03/13 02:42:12;;;;;;;35.57;18.10;;;;;;;6.15;64.07;94406.69;4994847;28;20435;-72
2021/03/13 02:44:37;;;;;;;28.10;17.07;;;;;;;5.94;64.35;94409.41;5011252;28;20463;-72
2021/03/13 02:47:03;;;;;;;35.00;18.57;;;;;;;6.07;63.69;94405.69;5010978;28;20228;-72
2021/03/13 02:49:29;;;;;;;33.83;18.60;;;;;;;6.10;63.75;94404.25;5011122;28;20654;-72
2021/03/13 02:51:54;;;;;;;37.20;18.07;;;;;;;6.09;64.57;94392.09;5011184;28;20423;-72
2021/03/13 02:54:20;;;;;;;36.73;19.77;;;;;;;6.17;64.84;94388.56;5010830;28;20217;-72
2021/03/13 02:56:45;;;;;;;34.70;18.67;;;;;;;6.06;65.56;94390.91;5011138;28;20257;-71
2021/03/13 02:59:12;;;;;;;36.30;19.43;;;;;;;5.83;66.18;94376.44;5010558;28;20212;-72
2021/03/13 03:01:38;;;;;;;35.53;18.63;;;;;;;6.06;65.06;94404.16;5011005;28;20211;-72
2021/03/13 03:04:04;;;;;;;39.30;19.17;;;;;;;6.20;64.34;94401.19;5010651;28;20523;-72
2021/03/13 03:06:39;;;;;;;48.37;18.23;;;;;;;6.19;64.67;94391.69;5010909;28;20181;-72
2021/03/13 03:09:05;;;;;;;40.07;20.23;;;;;;;6.01;66.65;94380.50;5010823;28;20655;-72
2021/03/13 03:11:31;;;;;;;40.22;20.95;;;;;;;6.02;65.84;94390.00;5010789;28;20420;-69
2021/03/13 03:13:56;;;;;;;30.93;17.83;;;;;;;5.80;67.10;94382.41;5010718;28;20204;-72
2021/03/13 03:16:22;;;;;;;38.37;18.03;;;;;;;5.73;67.99;94382.94;5010774;28;20203;-72
2021/03/13 03:18:49;;;;;;;39.17;19.53;;;;;;;5.45;68.05;94395.94;5010366;28;20570;-69
2021/03/13 03:21:14;;;;;;;39.92;20.02;;;;;;;5.40;67.30;94393.50;4994534;28;20173;-72
2021/03/13 03:23:40;;;;;;;35.47;19.67;;;;;;;5.68;67.46;94395.59;5010745;28;20621;-72
2021/03/13 03:26:05;;;;;;;37.50;21.10;;;;;;;5.15;68.58;94378.56;5010387;28;20200;-72
2021/03/13 03:28:31;;;;;;;40.10;21.77;;;;;;;5.21;68.58;94396.56;5011834;28;20177;-72
2021/03/13 03:30:57;;;;;;;39.00;21.83;;;;;;;5.41;68.07;94394.25;5010470;28;20652;-71
2021/03/13 03:33:23;;;;;;;44.33;22.40;;;;;;;5.74;66.48;94400.38;5011635;28;20188;-72
2021/03/13 03:35:48;;;;;;;49.67;22.73;;;;;;;5.91;65.70;94394.16;5011487;28;20173;-72
2021/03/13 03:38:14;;;;;;;49.73;22.37;;;;;;;5.95;65.72;94396.91;5011759;28;20419;-73
2021/03/13 03:40:40;;;;;;;42.87;22.60;;;;;;;5.18;69.48;94399.09;5010382;28;20173;-69
2021/03/13 03:43:10;;;;;;;41.17;21.50;;;;;;;5.58;67.78;94410.00;5011715;28;20219;-69
2021/03/13 03:45:36;;;;;;;38.47;19.80;;;;;;;5.78;67.13;94413.72;5010202;28;20223;-69
2021/03/13 03:48:06;;;;;;;43.97;21.33;;;;;;;5.38;69.61;94416.06;5011496;28;20173;-69
2021/03/13 03:50:31;;;;;;;39.60;20.20;;;;;;;5.70;67.80;94410.06;5010449;28;20183;-69
2021/03/13 03:52:57;;;;;;;42.37;21.07;;;;;;;5.44;68.92;94414.78;4993887;28;20895;-69
2021/03/13 03:55:23;;;;;;;42.53;22.10;;;;;;;5.66;67.46;94422.41;5010502;28;20193;-71
2021/03/13 03:57:48;;;;;;;37.70;21.70;;;;;;;5.45;68.10;94417.13;5010183;28;20169;-72
2021/03/13 04:00:15;;;;;;;39.73;20.33;;;;;;;5.72;67.67;94422.97;4994089;28;20161;-73
2021/03/13 04:02:41;;;;;;;46.63;23.67;;;;;;;5.91;65.47;94403.97;5010105;28;20173;-73
2021/03/13 04:05:07;;;;;;;40.83;20.37;;;;;;;6.05;65.02;94402.56;5010172;28;20463;-71
2021/03/13 04:07:33;;;;;;;34.80;19.60;;;;;;;6.20;64.64;94409.16;5009827;28;20305;-73
2021/03/13 04:09:59;;;;;;;37.07;18.93;;;;;;;6.18;64.48;94416.66;5011064;28;20999;-69
2021/03/13 04:12:24;;;;;;;32.90;19.03;;;;;;;6.20;63.97;94432.22;5013861;28;20177;-71
2021/03/13 04:14:49;;;;;;;34.07;18.37;;;;;;;6.25;64.66;94435.44;5014066;28;20557;-71
2021/03/13 04:17:15;;;;;;;35.30;18.77;;;;;;;6.36;64.14;94425.19;5012834;28;20227;-69
2021/03/13 04:19:40;;;;;;;41.87;20.07;;;;;;;6.34;63.66;94430.03;4997323;28;20176;-68
2021/03/13 04:22:06;;;;;;;51.77;22.93;;;;;;;6.07;64.32;94421.59;5013904;28;20176;-70
2021/03/13 04:24:31;;;;;;;47.53;22.93;;;;;;;5.82;66.37;94417.28;5013708;28;20220;-72
2021/03/13 04:26:57;;;;;;;42.13;22.50;;;;;;;5.82;66.25;94401.38;5013813;28;20204;-69
2021/03/13 04:29:22;;;;;;;53.97;23.80;;;;;;;5.77;66.97;94406.88;5013614;28;20211;-69
2021/03/13 04:31:48;;;;;;;47.47;23.93;;;;;;;5.77;66.23;94412.94;5013233;28;20324;-71
2021/03/13 04:34:15;;;;;;;49.97;26.27;;;;;;;5.73;66.39;94411.31;5013549;28;20173;-72
2021/03/13 04:36:40;;;;;;;54.58;27.75;;;;;;;5.76;66.77;94408.75;4997487;28;20184;-70
2021/03/13 04:39:06;;;;;;;50.80;26.53;;;;;;;5.78;66.00;94403.94;4997129;28;20181;-70
2021/03/13 04:41:31;;;;;;;52.03;25.97;;;;;;;5.49;66.23;94402.13;5013628;28;20173;-70
2021/03/13 04:43:57;;;;;;;48.17;25.17;;;;;;;5.61;66.88;94414.66;5013444;28;20170;-71
2021/03/13 04:46:23;;;;;;;56.17;24.27;;;;;;;5.79;66.06;94410.78;5013228;28;20172;-72
2021/03/13 04:48:49;;;;;;;46.33;23.47;;;;;;;5.65;65.69;94414.78;5013249;28;20661;-69
2021/03/13 04:51:15;;;;;;;46.20;23.57;;;;;;;5.76;65.67;94400.81;5013092;28;20420;-70
2021/03/13 04:53:41;;;;;;;47.07;24.60;;;;;;;5.80;65.15;94411.53;5014400;28;20765;-70
2021/03/13 04:56:06;;;;;;;44.10;23.20;;;;;;;5.76;64.74;94407.97;5013209;28;20420;-69
2021/03/13 04:58:31;;;;;;;48.30;22.07;;;;;;;5.76;64.39;94398.16;5014184;28;20655;-69
2021/03/13 05:00:57;;;;;;;56.70;25.83;;;;;;;5.91;64.31;94394.16;5014259;28;20173;-69
2021/03/13 05:03:22;;;;;;;46.00;24.30;;;;;;;5.79;64.92;94405.47;5013143;28;20712;-69
2021/03/13 05:05:48;;;;;;;44.80;22.43;;;;;;;5.92;64.06;94398.34;5014220;28;20197;-69
2021/03/13 05:08:13;;;;;;;50.20;24.03;;;;;;;5.49;65.78;94404.78;5014273;28;20177;-72
2021/03/13 05:10:39;;;;;;;43.03;22.03;;;;;;;5.55;66.40;94408.00;5012688;28;20261;-73
2021/03/13 05:13:05;;;;;;;46.00;23.37;;;;;;;4.93;68.06;94414.03;5014126;28;20264;-72
2021/03/13 05:15:30;;;;;;;47.47;24.90;;;;;;;5.22;67.20;94413.25;5014095;28;20220;-70
2021/03/13 05:17:55;;;;;;;46.03;23.40;;;;;;;5.00;68.59;94424.91;5013832;28;20165;-69
2021/03/13 05:20:21;;;;;;;45.43;26.43;;;;;;;4.97;67.41;94415.72;5014042;28;20208;-73
2021/03/13 05:22:48;;;;;;;50.63;26.55;;;;;;;5.10;66.89;94429.03;5012142;28;20247;-72
2021/03/13 05:25:14;;;;;;;50.28;24.25;;;;;;;5.25;66.86;94433.78;4996134;28;20215;-69
2021/03/13 05:27:39;;;;;;;47.60;24.03;;;;;;;4.99;68.15;94441.84;5013547;28;20181;-73
2021/03/13 05:30:06;;;;;;;51.90;25.93;;;;;;;5.18;67.34;94441.44;5013856;28;20177;-72
2021/03/13 05:32:32;;;;;;;49.67;24.50;;;;;;;5.33;67.07;94430.28;5013805;28;20256;-72
2021/03/13 05:34:58;;;;;;;43.47;23.73;;;;;;;5.35;67.27;94445.84;5013264;28;20610;-73
2021/03/13 05:37:23;;;;;;;64.97;28.73;;;;;;;5.41;67.02;94448.00;5013616;28;20228;-73
2021/03/13 05:39:48;;;;;;;50.37;27.03;;;;;;;5.41;67.42;94444.56;5013432;28;20643;-73
2021/03/13 05:42:14;;;;;;;55.87;27.13;;;;;;;5.29;67.66;94442.63;5013619;28;20169;-78
2021/03/13 05:44:39;;;;;;;50.00;27.20;;;;;;;5.54;67.48;94451.47;4995885;28;20216;-74
2021/03/13 05:47:05;;;;;;;54.57;25.80;;;;;;;5.71;67.16;94448.69;5011565;28;20196;-71
2021/03/13 05:49:32;;;;;;;65.70;29.43;;;;;;;5.56;66.86;94452.72;5011937;28;20251;-73
2021/03/13 05:51:57;;;;;;;53.78;29.75;;;;;;;5.67;66.34;94447.81;5014607;28;20197;-76
2021/03/13 05:54:23;;;;;;;61.87;29.87;;;;;;;5.53;66.61;94442.75;5011292;28;20267;-76
2021/03/13 05:56:48;;;;;;;60.70;28.67;;;;;;;5.42;66.06;94456.72;5011234;28;20181;-76
2021/03/13 05:59:14;;;;;;;61.77;30.03;;;;;;;5.51;66.04;94446.84;5012122;28;20184;-77
2021/03/13 06:01:40;;;;;;;62.20;28.67;;;;;;;5.54;66.51;94446.94;5013021;28;20191;-76
2021/03/13 06:04:05;;;;;;;58.43;29.23;;;;;;;5.66;66.16;94443.59;5012867;28;20266;-74
2021/03/13 06:06:35;;;;;;;56.67;29.90;;;;;;;5.29;68.49;94447.91;5012951;28;20161;-71
2021/03/13 06:09:01;;;;;;;52.73;29.20;;;;;;;4.97;68.91;94436.88;5011886;28;20173;-77
2021/03/13 06:11:26;;;;;;;60.07;29.23;;;;;;;5.07;68.56;94461.44;5011757;28;20428;-71
2021/03/13 06:13:52;;;;;;;61.70;28.93;;;;;;;5.24;68.82;94461.34;5013015;28;20647;-71
2021/03/13 06:16:17;;;;;;;59.13;27.67;;;;;;;5.55;67.24;94445.84;5012747;28;20714;-70
2021/03/13 06:18:49;;;;;;;60.93;29.80;;;;;;;5.88;66.06;94470.84;5012929;28;20232;-74
2021/03/13 06:21:32;;;;;;;52.57;26.20;;;;;;;5.91;69.48;94472.84;5027963;28;20169;-74
2021/03/13 06:24:13;;;;;;;57.43;28.00;;;;;;;7.94;74.93;94479.28;5027610;28;20428;-71
2021/03/13 06:26:59;;;;;;;48.73;26.00;;;;;;;9.68;62.68;94487.41;5012497;28;20424;-69
2021/03/13 06:29:24;;;;;;;50.33;26.00;;;;;;;10.02;57.50;94483.94;5012774;28;20416;-66
2021/03/13 06:32:13;;;;;;;48.93;27.67;;;;;;;9.31;55.93;94465.63;5011202;28;20420;-77
2021/03/13 06:34:39;;;;;;;54.60;28.20;;;;;;;7.93;59.14;94477.75;5011030;28;20165;-78
2021/03/13 06:37:30;;;;;;;56.83;28.67;;;;;;;7.53;60.36;94480.41;5012619;28;20516;-70
2021/03/13 06:39:56;;;;;;;51.40;27.97;;;;;;;7.23;62.16;94490.50;5010476;28;20181;-71
2021/03/13 06:42:26;;;;;;;56.80;28.67;;;;;;;7.20;61.50;94491.94;5010990;28;20424;-73
2021/03/13 06:44:58;;;;;;;59.53;28.03;;;;;;;7.41;62.05;94491.81;5010614;28;20248;-78
2021/03/13 06:47:50;;;;;;;54.97;28.03;;;;;;;7.66;61.24;94495.19;5012413;28;20434;-78
2021/03/13 06:50:17;;;;;;;48.57;26.53;;;;;;;7.40;61.76;94504.31;5011085;28;20482;-75
2021/03/13 06:52:54;;;;;;;54.93;28.20;;;;;;;7.43;61.47;94492.25;5012204;28;20474;-78
2021/03/13 06:55:23;;;;;;;51.67;27.33;;;;;;;7.36;61.80;94497.34;5012100;28;20400;-79
2021/03/13 06:57:49;;;;;;;52.07;27.70;;;;;;;7.24;62.29;94502.66;5012491;28;20508;-79
2021/03/13 07:00:29;;;;;;;45.33;24.43;;;;;;;7.51;63.84;94501.97;5011987;28;20994;-80
2021/03/13 07:03:10;;;;;;;49.47;25.83;;;;;;;7.75;60.98;94505.72;5012231;28;20173;-69
2021/03/13 07:05:39;;;;;;;46.47;24.10;;;;;;;7.87;61.03;94509.13;5011922;28;20562;-81
2021/03/13 07:08:28;;;;;;;42.40;23.80;;;;;;;7.97;59.40;94505.22;4994796;28;20471;-77
2021/03/13 07:11:18;;;;;;;52.93;22.97;;;;;;;7.93;60.50;94505.09;5012141;28;20408;-78
2021/03/13 07:13:56;;;;;;;39.23;21.67;;;;;;;8.30;59.62;94496.22;5010695;28;20420;-69
2021/03/13 07:16:29;;;;;;;39.20;19.10;;;;;;;8.30;57.33;94502.31;5012050;28;20411;-71
2021/03/13 07:18:58;;;;;;;37.67;20.37;;;;;;;8.35;59.04;94520.69;4994747;28;20416;-72
2021/03/13 07:21:24;;;;;;;39.03;20.50;;;;;;;8.62;58.49;94508.50;5012124;28;20466;-71
2021/03/13 07:23:58;;;;;;;33.93;18.70;;;;;;;8.54;55.96;94511.34;5011899;28;21005;-76
2021/03/13 07:26:24;;;;;;;31.80;18.23;;;;;;;10.47;69.48;94511.13;5011801;28;20215;-71
2021/03/13 07:28:50;;;;;;;33.73;17.10;;;;;;;11.32;62.06;94507.25;5011434;28;20428;-70
2021/03/13 07:31:18;;;;;;;34.63;20.53;;;;;;;11.21;58.69;94506.31;5010434;28;20434;-70
2021/03/13 07:33:43;;;;;;;32.77;18.67;;;;;;;10.56;51.33;94504.44;5010377;28;20228;-71
2021/03/13 07:36:10;;;;;;;30.47;17.63;;;;;;;10.49;54.48;94506.97;5010643;28;20820;-71
2021/03/13 07:38:37;;;;;;;32.80;18.50;;;;;;;10.54;54.42;94516.59;5011629;28;20260;-71
2021/03/13 07:41:03;;;;;;;34.50;18.57;;;;;;;11.37;53.85;94517.63;5010657;28;20848;-71
2021/03/13 07:43:29;;;;;;;29.87;17.33;;;;;;;11.39;50.21;94515.41;5010183;28;20423;-71
2021/03/13 07:45:54;;;;;;;34.07;18.73;;;;;;;11.42;50.21;94505.88;5012929;28;20216;-71
2021/03/13 07:48:20;;;;;;;37.77;18.87;;;;;;;11.79;51.53;94510.63;5014500;28;20448;-71
2021/03/13 07:50:48;;;;;;;26.93;16.37;;;;;;;12.19;50.67;94507.34;5015903;28;20351;-71
2021/03/13 07:53:14;;;;;;;26.47;15.23;;;;;;;12.34;49.79;94503.69;5015592;28;20239;-71
2021/03/13 07:55:39;;;;;;;29.67;15.17;;;;;;;12.37;48.34;94513.69;5014145;28;20416;-72
2021/03/13 07:58:07;;;;;;;31.60;16.53;;;;;;;12.33;50.52;94506.72;5013770;28;20197;-69
2021/03/13 08:00:43;;;;;;;23.47;14.97;;;;;;;11.78;46.04;94509.81;5014254;28;20680;-79
2021/03/13 08:03:28;;;;;;;27.67;16.30;;;;;;;11.25;49.58;94507.16;5020804;28;20423;-71
2021/03/13 08:05:55;;;;;;;28.40;17.57;;;;;;;10.79;49.26;94501.81;5020373;28;20467;-79
2021/03/13 08:08:45;;;;;;;31.07;17.97;;;;;;;10.83;50.08;94508.00;5014688;28;21011;-76
2021/03/13 08:11:11;;;;;;;31.10;17.10;;;;;;;10.77;51.43;94512.06;5015616;28;20946;-76
2021/03/13 08:13:40;;;;;;;39.23;20.17;;;;;;;10.66;52.67;94516.44;5014175;28;20423;-80
2021/03/13 08:16:06;;;;;;;26.23;14.87;;;;;;;10.74;49.59;94520.78;5015648;28;20439;-80
2021/03/13 08:18:50;;;;;;;28.20;15.57;;;;;;;10.52;51.85;94513.50;5015085;28;20792;-78
2021/03/13 08:21:19;;;;;;;35.73;15.53;;;;;;;10.61;50.25;94519.41;5015290;28;20996;-73
2021/03/13 08:23:57;;;;;;;30.60;16.10;;;;;;;10.57;49.36;94510.56;5015833;28;20416;-71
2021/03/13 08:26:35;;;;;;;29.47;15.50;;;;;;;10.10;51.11;94519.53;5014509;28;20466;-80
2021/03/13 08:29:00;;;;;;;35.60;17.70;;;;;;;10.33;52.62;94522.31;5015037;28;20526;-73
2021/03/13 08:31:29;;;;;;;45.33;21.67;;;;;;;10.41;54.59;94518.66;5014990;28;20918;-80
2021/03/13 08:34:09;;;;;;;50.83;25.27;;;;;;;10.30;53.11;94505.09;5016454;28;20685;-77
2021/03/13 08:36:47;;;;;;;47.73;25.60;;;;;;;10.28;52.84;94525.25;5015344;28;20810;-82
2021/03/13 08:39:14;;;;;;;51.33;25.50;;;;;;;10.20;54.84;94524.28;5015101;28;20423;-81
2021/03/13 08:41:45;;;;;;;43.20;23.07;;;;;;;10.26;53.18;94517.59;5015000;28;20420;-78
2021/03/13 08:44:27;;;;;;;51.50;24.90;;;;;;;10.36;55.30;94529.59;5014751;28;20945;-74
2021/03/13 08:47:14;;;;;;;50.07;25.57;;;;;;;10.49;53.59;94519.53;5014557;28;20428;-73
2021/03/13 08:49:43;;;;;;;48.83;25.07;;;;;;;10.56;53.40;94525.81;5014882;28;20435;-78
2021/03/13 08:52:09;;;;;;;49.50;23.50;;;;;;;10.45;53.95;94524.06;5014234;28;20934;-78
2021/03/13 08:54:37;;;;;;;44.17;24.50;;;;;;;10.45;52.91;94527.50;5014754;28;20456;-79
2021/03/13 08:57:03;;;;;;;47.10;24.20;;;;;;;10.54;52.96;94529.94;5013879;28;20263;-80
2021/03/13 08:59:28;;;;;;;41.57;23.97;;;;;;;10.53;51.80;94528.41;5014613;28;20777;-71
2021/03/13 09:02:04;;;;;;;44.53;23.43;;;;;;;10.67;53.12;94533.25;5012913;28;20439;-72
2021/03/13 09:04:30;;;;;;;42.57;22.30;;;;;;;10.62;51.97;94534.31;5013187;28;20262;-72
2021/03/13 09:06:57;;;;;;;41.57;22.13;;;;;;;10.56;53.47;94535.72;5014068;28;20438;-72
2021/03/13 09:09:24;;;;;;;47.17;24.50;;;;;;;10.72;50.49;94540.94;5014250;28;20510;-72
2021/03/13 09:12:00;;;;;;;43.83;24.50;;;;;;;10.67;53.14;94535.91;5012859;28;20837;-71
2021/03/13 09:14:26;;;;;;;52.53;26.33;;;;;;;10.70;52.65;94540.53;5014056;28;20427;-73
2021/03/13 09:16:51;;;;;;;52.17;26.30;;;;;;;10.89;52.43;94535.19;5014046;28;20428;-72
2021/03/13 09:19:17;;;;;;;43.73;23.47;;;;;;;11.08;51.41;94534.34;5014031;28;20181;-77
2021/03/13 09:21:47;;;;;;;43.40;26.47;;;;;;;11.11;52.62;94537.09;5013981;28;20611;-76
2021/03/13 09:24:27;;;;;;;47.77;24.47;;;;;;;11.07;53.26;94538.91;5011760;28;20235;-79
2021/03/13 09:27:00;;;;;;;52.43;26.57;;;;;;;11.09;51.20;94543.91;5012797;28;20427;-75
2021/03/13 09:29:31;;;;;;;46.27;25.13;;;;;;;10.97;53.26;94549.41;5013975;28;20511;-73
2021/03/13 09:32:03;;;;;;;42.87;24.10;;;;;;;11.02;50.42;94551.81;5013859;28;20420;-73
2021/03/13 09:34:30;;;;;;;43.20;23.13;;;;;;;10.86;51.02;94550.00;5013759;28;20452;-73
2021/03/13 09:36:55;;;;;;;48.63;25.53;;;;;;;10.73;53.78;94555.88;5013664;28;20420;-73
2021/03/13 09:39:28;;;;;;;41.13;25.07;;;;;;;10.27;57.20;94555.75;5013316;28;20996;-73
2021/03/13 09:42:07;;;;;;;52.80;27.97;;;;;;;10.27;60.10;94561.06;5012426;28;20232;-76
2021/03/13 09:44:34;;;;;;;52.63;26.80;;;;;;;10.22;60.61;94553.31;5013495;28;20482;-78
2021/03/13 09:46:59;;;;;;;54.20;26.43;;;;;;;10.00;62.81;94552.88;5013506;28;20416;-75
2021/03/13 09:49:26;;;;;;;54.03;27.20;;;;;;;10.06;63.06;94551.47;5011840;28;20704;-71
2021/03/13 09:51:51;;;;;;;47.27;27.57;;;;;;;10.38;61.33;94555.94;4995848;28;20278;-76
2021/03/13 09:54:17;;;;;;;43.67;25.27;;;;;;;10.57;61.19;94538.03;5011834;28;20998;-77
2021/03/13 09:56:42;;;;;;;57.17;27.93;;;;;;;10.74;60.38;94546.72;5012319;28;20173;-79
2021/03/13 09:59:08;;;;;;;55.43;26.87;;;;;;;10.80;59.43;94540.72;5011074;28;20185;-78
2021/03/13 10:01:35;;;;;;;52.00;27.13;;;;;;;10.89;59.75;94532.50;5012110;28;20211;-76
2021/03/13 10:04:01;;;;;;;52.87;28.13;;;;;;;10.80;58.85;94529.28;5011669;28;20185;-78
2021/03/13 10:06:26;;;;;;;44.53;25.63;;;;;;;10.99;57.80;94533.81;4995097;28;20936;-77
2021/03/13 10:08:57;;;;;;;52.60;26.80;;;;;;;10.93;56.36;94533.31;4994766;28;20211;-75
2021/03/13 10:11:22;;;;;;;50.47;26.37;;;;;;;11.08;57.21;94535.13;5013029;28;20180;-77
2021/03/13 10:13:52;;;;;;;42.97;22.40;;;;;;;11.20;55.74;94533.41;5011978;28;20424;-78
2021/03/13 10:16:17;;;;;;;45.20;24.97;;;;;;;11.27;55.93;94528.94;5013072;28;20185;-78
2021/03/13 10:18:43;;;;;;;40.43;24.10;;;;;;;11.68;56.21;94523.84;5012897;28;20794;-76
2021/03/13 10:21:09;;;;;;;47.80;24.93;;;;;;;12.21;56.70;94526.47;5012790;28;20717;-75
2021/03/13 10:23:35;;;;;;;43.63;24.47;;;;;;;12.48;55.00;94529.88;5012842;28;20424;-77
2021/03/13 10:26:14;;;;;;;42.93;23.07;;;;;;;12.16;52.72;94548.22;5012673;28;20215;-75
2021/03/13 10:28:49;;;;;;;45.20;23.93;;;;;;;11.98;53.07;94542.63;5012816;28;21032;-72
2021/03/13 10:31:19;;;;;;;37.67;23.10;;;;;;;12.06;54.63;94549.59;5012587;28;20404;-72
2021/03/13 10:33:45;;;;;;;42.87;23.20;;;;;;;12.33;53.16;94558.38;5012626;28;20428;-71
2021/03/13 10:36:11;;;;;;;36.93;21.77;;;;;;;12.23;51.29;94553.66;5011299;28;20416;-71
2021/03/13 10:38:46;;;;;;;39.03;21.33;;;;;;;12.05;51.49;94553.41;5012715;28;20223;-72
2021/03/13 10:41:14;;;;;;;43.70;22.57;;;;;;;11.65;52.43;94551.28;5012332;28;20412;-71
2021/03/13 10:43:43;;;;;;;40.03;21.67;;;;;;;11.75;52.96;94548.00;5012589;28;20803;-76
2021/03/13 10:46:14;;;;;;;41.53;22.33;;;;;;;11.87;53.13;94553.19;5012114;28;20602;-77
2021/03/13 10:48:42;;;;;;;46.43;20.17;;;;;;;12.04;53.17;94537.72;5010797;28;20926;-77
2021/03/13 10:51:17;;;;;;;35.87;19.10;;;;;;;11.95;50.97;94537.97;5012057;28;20416;-79
2021/03/13 10:53:43;;;;;;;38.57;21.37;;;;;;;11.81;52.91;94535.09;4995844;28;20477;-78
2021/03/13 10:56:10;;;;;;;35.00;19.67;;;;;;;11.94;50.56;94527.66;5011949;28;20424;-71
2021/03/13 10:58:45;;;;;;;34.70;19.03;;;;;;;11.80;52.05;94528.22;5012206;28;20656;-71
2021/03/13 11:01:11;;;;;;;36.73;20.63;;;;;;;11.93;51.37;94529.56;5008456;28;20427;-74
2021/03/13 11:03:37;;;;;;;36.83;19.83;;;;;;;11.79;50.67;94534.69;5011697;28;20438;-71
2021/03/13 11:06:02;;;;;;;32.60;18.77;;;;;;;11.47;52.46;94528.88;5011245;28;20339;-74
2021/03/13 11:08:31;;;;;;;35.53;18.53;;;;;;;11.54;52.76;94539.66;5011691;28;20660;-73
2021/03/13 11:10:57;;;;;;;31.23;18.80;;;;;;;11.64;53.67;94539.06;5011906;28;20173;-72
2021/03/13 11:13:23;;;;;;;26.97;16.43;;;;;;;11.64;54.10;94528.34;5011837;28;20474;-75
2021/03/13 11:15:48;;;;;;;25.90;14.10;;;;;;;11.56;54.09;94522.16;5011635;28;20177;-72
2021/03/13 11:18:14;;;;;;;29.77;14.83;;;;;;;11.99;53.34;94530.00;5011748;28;20485;-73
2021/03/13 11:20:40;;;;;;;28.17;15.20;;;;;;;11.89;52.53;94531.41;5011824;28;20169;-75
2021/03/13 11:23:05;;;;;;;31.83;14.73;;;;;;;11.96;52.25;94538.78;5011718;28;20183;-72
2021/03/13 11:25:31;;;;;;;26.37;14.43;;;;;;;11.90;53.42;94531.06;5010265;28;20667;-78
2021/03/13 11:27:56;;;;;;;34.20;14.87;;;;;;;12.20;52.62;94518.81;5010339;28;20266;-77